Time,TemperatureF,DewpointF,PressureIn,WindDirection,WindDirectionDegrees,WindSpeedMPH,WindSpeedGustMPH,Humidity,HourlyPrecipIn,Conditions,Clouds,dailyrainin,SolarRadiationWatts/m^2,SoftwareType,DateUTC
2013-06-07 00:00:00,53.4,51.1,30.02,NNW,338,1.0,5.0,92,0.00,,---,0.00,0.00,VWS V14.00,2013-06-07 05:00:00,
2013-06-07 00:30:00,53.2,51.2,30.02,North,0,1.0,4.0,93,0.00,,---,0.00,0.00,VWS V14.00,2013-06-07 05:30:00,
2013-06-07 01:00:00,53.0,51.0,30.02,North,0,1.0,4.0,93,0.00,,---,0.00,0.00,VWS V14.00,2013-06-07 06:00:00,
2013-06-07 01:30:00,53.0,51.0,30.02,NW,315,1.0,4.0,93,0.00,,---,0.00,0.00,VWS V14.00,2013-06-07 06:30:00,
2013-06-07 02:00:00,53.0,51.0,30.01,North,0,1.0,6.0,93,0.00,,---,0.00,0.00,VWS V14.00,2013-06-07 07:00:00,
2013-06-07 02:30:00,52.9,50.9,30.01,NNE,22,1.0,4.0,93,0.00,,---,0.00,0.00,VWS V14.00,2013-06-07 07:30:00,
2013-06-07 03:00:00,52.8,50.8,30.00,NW,315,1.0,3.0,93,0.00,,---,0.00,0.00,VWS V14.00,2013-06-07 08:00:00,
2013-06-07 03:30:00,52.7,51.0,30.00,NNW,338,0.0,2.0,94,0.00,,---,0.00,0.00,VWS V14.00,2013-06-07 08:30:00,
2013-06-07 04:00:00,52.6,50.6,30.00,NNW,338,0.0,3.0,93,0.00,,---,0.00,0.00,VWS V14.00,2013-06-07 09:00:00,
2013-06-07 04:30:00,52.2,50.5,30.00,North,0,1.0,4.0,94,0.00,,---,0.00,0.00,VWS V14.00,2013-06-07 09:30:00,
2013-06-07 05:00:00,51.7,50.3,30.00,North,0,0.0,2.0,95,0.00,,---,0.00,0.00,VWS V14.00,2013-06-07 10:00:00,
2013-06-07 05:30:00,51.5,50.1,30.01,North,0,0.0,2.0,95,0.00,,---,0.00,0.00,VWS V14.00,2013-06-07 10:30:00,
2013-06-07 06:00:00,51.6,50.2,30.01,North,0,0.0,1.0,95,0.00,,---,0.00,7.00,VWS V14.00,2013-06-07 11:00:00,
2013-06-07 06:30:00,51.9,50.8,30.02,North,0,0.0,0.0,96,0.00,,---,0.00,17.00,VWS V14.00,2013-06-07 11:30:00,
2013-06-07 07:00:00,52.6,51.5,30.02,North,0,0.0,0.0,96,0.00,,---,0.00,35.00,VWS V14.00,2013-06-07 12:00:00,
2013-06-07 07:30:00,53.2,51.5,30.03,North,0,0.0,2.0,94,0.00,,---,0.00,66.00,VWS V14.00,2013-06-07 12:30:00,
2013-06-07 08:00:00,53.9,51.9,30.03,North,0,0.0,3.0,93,0.00,,---,0.00,100.00,VWS V14.00,2013-06-07 13:00:00,
2013-06-07 08:30:00,54.4,52.1,30.04,North,0,0.0,3.0,92,0.00,,---,0.00,95.00,VWS V14.00,2013-06-07 13:30:00,
2013-06-07 09:00:00,54.5,51.9,30.05,NNW,338,1.0,4.0,91,0.00,,---,0.00,104.00,VWS V14.00,2013-06-07 14:00:00,
2013-06-07 09:30:00,55.3,52.1,30.04,NNW,338,0.0,3.0,89,0.00,,---,0.00,212.00,VWS V14.00,2013-06-07 14:30:00,
2013-06-07 10:00:00,56.4,52.6,30.03,NNW,338,1.0,4.0,87,0.00,,---,0.00,271.00,VWS V14.00,2013-06-07 15:00:00,
2013-06-07 10:30:00,57.4,53.2,30.03,North,0,1.0,3.0,86,0.00,,---,0.00,329.00,VWS V14.00,2013-06-07 15:30:00,
2013-06-07 11:00:00,57.6,52.8,30.01,NNE,22,1.0,5.0,84,0.00,,---,0.00,262.00,VWS V14.00,2013-06-07 16:00:00,
2013-06-07 11:30:00,58.9,53.1,30.02,NNW,338,0.0,3.0,81,0.00,,---,0.00,351.00,VWS V14.00,2013-06-07 16:30:00,
2013-06-07 12:00:00,58.6,52.1,30.01,North,0,1.0,4.0,79,0.00,,---,0.00,202.00,VWS V14.00,2013-06-07 17:00:00,
2013-06-07 12:30:00,59.0,52.8,30.01,NNW,338,0.0,3.0,80,0.00,,---,0.00,197.00,VWS V14.00,2013-06-07 17:30:00,
2013-06-07 13:00:00,60.0,52.8,30.00,NNE,22,1.0,5.0,77,0.00,,---,0.00,383.00,VWS V14.00,2013-06-07 18:00:00,
2013-06-07 13:30:00,60.9,52.9,29.99,NW,315,1.0,4.0,75,0.00,,---,0.00,437.00,VWS V14.00,2013-06-07 18:30:00,
2013-06-07 14:00:00,61.2,52.1,29.99,North,0,1.0,3.0,72,0.00,,---,0.00,354.00,VWS V14.00,2013-06-07 19:00:00,
2013-06-07 14:30:00,61.4,52.3,29.98,NNE,22,0.0,4.0,72,0.00,,---,0.00,300.00,VWS V14.00,2013-06-07 19:30:00,
2013-06-07 15:00:00,61.5,52.8,29.98,North,0,0.0,3.0,73,0.00,,---,0.00,209.00,VWS V14.00,2013-06-07 20:00:00,
2013-06-07 15:30:00,62.2,53.5,29.98,North,0,0.0,3.0,73,0.00,,---,0.00,327.00,VWS V14.00,2013-06-07 20:30:00,
2013-06-07 16:00:00,62.5,53.7,29.96,North,0,0.0,3.0,73,0.00,,---,0.00,297.00,VWS V14.00,2013-06-07 21:00:00,
2013-06-07 16:30:00,63.3,53.0,29.95,North,0,0.0,3.0,69,0.00,,---,0.00,378.00,VWS V14.00,2013-06-07 21:30:00,
2013-06-07 17:00:00,63.6,52.5,29.95,NNE,22,0.0,3.0,67,0.00,,---,0.00,293.00,VWS V14.00,2013-06-07 22:00:00,
2013-06-07 17:30:00,63.4,52.3,29.94,NNE,22,0.0,2.0,67,0.00,,---,0.00,219.00,VWS V14.00,2013-06-07 22:30:00,
2013-06-07 18:00:00,63.5,53.2,29.93,NNE,22,0.0,2.0,69,0.00,,---,0.00,173.00,VWS V14.00,2013-06-07 23:00:00,
2013-06-07 18:30:00,63.0,53.5,29.93,NNE,22,0.0,2.0,71,0.00,,---,0.00,118.00,VWS V14.00,2013-06-07 23:30:00,
2013-06-07 19:00:00,62.5,53.0,29.93,NNE,22,0.0,2.0,71,0.00,,---,0.00,116.00,VWS V14.00,2013-06-08 00:00:00,
2013-06-07 19:30:00,62.5,54.1,29.92,NNE,22,0.0,0.0,74,0.00,,---,0.00,77.00,VWS V14.00,2013-06-08 00:30:00,
2013-06-07 20:00:00,61.3,53.3,29.92,NNE,22,0.0,3.0,75,0.00,,---,0.00,47.00,VWS V14.00,2013-06-08 01:00:00,
2013-06-07 20:30:00,60.2,54.7,29.92,NNE,22,0.0,0.0,82,0.00,,---,0.00,31.00,VWS V14.00,2013-06-08 01:30:00,
2013-06-07 21:00:00,59.0,54.5,29.92,NNE,22,0.0,0.0,85,0.00,,---,0.00,7.00,VWS V14.00,2013-06-08 02:00:00,
2013-06-07 21:30:00,58.0,53.5,29.92,NNE,22,0.0,0.0,85,0.00,,---,0.00,0.00,VWS V14.00,2013-06-08 02:30:00,
2013-06-07 22:00:00,56.8,52.7,29.93,NNE,22,0.0,0.0,86,0.00,,---,0.00,0.00,VWS V14.00,2013-06-08 03:00:00,
2013-06-07 22:30:00,55.6,52.1,29.92,NNE,22,0.0,0.0,88,0.00,,---,0.00,0.00,VWS V14.00,2013-06-08 03:30:00,
2013-06-07 23:00:00,54.5,51.3,29.91,NNE,22,0.0,0.0,89,0.00,,---,0.00,0.00,VWS V14.00,2013-06-08 04:00:00,
2013-06-07 23:30:00,53.9,51.6,29.90,NNE,22,0.0,0.0,92,0.00,,---,0.00,0.00,VWS V14.00,2013-06-08 04:30:00,